sensor_id;sensor_type;location;lat;lon;timestamp;P1;durP1;ratioP1;P2;durP2;ratioP2
83761;SDS011;73752;49.594;8.734;2024-03-23T00:55:21;37.70;;;23.15;;
83761;SDS011;73752;49.594;8.734;2024-03-23T00:58:21;35.80;;;22.23;;
83761;SDS011;73752;49.594;8.734;2024-03-23T01:01:22;41.42;;;22.45;;
83761;SDS011;73752;49.594;8.734;2024-03-23T01:04:22;36.05;;;20.30;;
83761;SDS011;73752;49.594;8.734;2024-03-23T01:07:22;32.03;;;20.50;;
83761;SDS011;73752;49.594;8.734;2024-03-23T01:10:22;30.52;;;21.00;;
83761;SDS011;73752;49.594;8.734;2024-03-23T01:13:23;35.58;;;22.20;;
83761;SDS011;73752;49.594;8.734;2024-03-23T01:16:23;30.35;;;20.13;;
83761;SDS011;73752;49.594;8.734;2024-03-23T01:19:24;31.98;;;19.83;;
83761;SDS011;73752;49.594;8.734;2024-03-23T01:22:24;30.45;;;19.02;;
83761;SDS011;73752;49.594;8.734;2024-03-23T01:25:25;28.27;;;17.67;;
83761;SDS011;73752;49.594;8.734;2024-03-23T01:28:25;30.05;;;17.95;;
83761;SDS011;73752;49.594;8.734;2024-03-23T01:31:25;25.02;;;16.60;;
83761;SDS011;73752;49.594;8.734;2024-03-23T01:34:26;25.70;;;15.82;;
83761;SDS011;73752;49.594;8.734;2024-03-23T01:37:27;26.30;;;16.63;;
83761;SDS011;73752;49.594;8.734;2024-03-23T01:40:28;23.15;;;16.67;;
83761;SDS011;73752;49.594;8.734;2024-03-23T01:43:31;26.25;;;15.45;;
83761;SDS011;73752;49.594;8.734;2024-03-23T01:46:32;30.83;;;15.98;;
83761;SDS011;73752;49.594;8.734;2024-03-23T01:49:32;23.85;;;15.02;;
83761;SDS011;73752;49.594;8.734;2024-03-23T01:52:33;25.75;;;14.65;;
83761;SDS011;73752;49.594;8.734;2024-03-23T01:55:34;29.25;;;14.98;;
83761;SDS011;73752;49.594;8.734;2024-03-23T01:58:34;25.85;;;15.85;;
83761;SDS011;73752;49.594;8.734;2024-03-23T02:01:35;24.90;;;13.23;;
83761;SDS011;73752;49.594;8.734;2024-03-23T02:04:38;24.70;;;13.13;;
83761;SDS011;73752;49.594;8.734;2024-03-23T02:07:39;24.88;;;12.70;;
83761;SDS011;73752;49.594;8.734;2024-03-23T02:10:40;22.50;;;11.80;;
83761;SDS011;73752;49.594;8.734;2024-03-23T02:13:49;19.55;;;11.15;;
83761;SDS011;73752;49.594;8.734;2024-03-23T02:16:49;18.60;;;11.20;;
83761;SDS011;73752;49.594;8.734;2024-03-23T02:19:50;20.38;;;10.13;;
83761;SDS011;73752;49.594;8.734;2024-03-23T02:22:51;16.92;;;10.88;;
83761;SDS011;73752;49.594;8.734;2024-03-23T02:25:53;18.73;;;10.00;;
83761;SDS011;73752;49.594;8.734;2024-03-23T02:28:53;29.60;;;10.13;;
83761;SDS011;73752;49.594;8.734;2024-03-23T02:31:53;20.00;;;9.82;;
83761;SDS011;73752;49.594;8.734;2024-03-23T02:34:54;19.13;;;10.43;;
83761;SDS011;73752;49.594;8.734;2024-03-23T02:37:54;16.95;;;10.05;;
83761;SDS011;73752;49.594;8.734;2024-03-23T02:41:00;13.25;;;8.82;;
83761;SDS011;73752;49.594;8.734;2024-03-23T02:44:02;15.75;;;10.05;;
83761;SDS011;73752;49.594;8.734;2024-03-23T02:47:02;17.27;;;10.15;;
83761;SDS011;73752;49.594;8.734;2024-03-23T02:50:03;16.60;;;9.02;;
83761;SDS011;73752;49.594;8.734;2024-03-23T02:53:04;18.08;;;9.70;;
83761;SDS011;73752;49.594;8.734;2024-03-23T02:56:04;24.00;;;10.10;;
83761;SDS011;73752;49.594;8.734;2024-03-23T02:59:05;14.88;;;9.80;;
83761;SDS011;73752;49.594;8.734;2024-03-23T03:02:05;16.58;;;10.82;;
83761;SDS011;73752;49.594;8.734;2024-03-23T03:05:06;18.30;;;10.60;;
83761;SDS011;73752;49.594;8.734;2024-03-23T03:08:07;16.55;;;10.52;;
83761;SDS011;73752;49.594;8.734;2024-03-23T03:11:07;19.92;;;11.00;;
83761;SDS011;73752;49.594;8.734;2024-03-23T03:14:07;18.98;;;10.88;;
83761;SDS011;73752;49.594;8.734;2024-03-23T03:17:08;23.58;;;12.20;;
83761;SDS011;73752;49.594;8.734;2024-03-23T03:20:08;21.00;;;12.02;;
83761;SDS011;73752;49.594;8.734;2024-03-23T03:26:13;18.67;;;12.57;;
83761;SDS011;73752;49.594;8.734;2024-03-23T03:29:13;21.20;;;13.32;;
83761;SDS011;73752;49.594;8.734;2024-03-23T03:32:14;21.13;;;12.70;;
83761;SDS011;73752;49.594;8.734;2024-03-23T03:35:14;23.17;;;13.30;;
83761;SDS011;73752;49.594;8.734;2024-03-23T03:38:14;24.33;;;13.40;;
83761;SDS011;73752;49.594;8.734;2024-03-23T03:41:15;24.23;;;12.85;;
83761;SDS011;73752;49.594;8.734;2024-03-23T03:44:15;24.83;;;13.90;;
83761;SDS011;73752;49.594;8.734;2024-03-23T03:47:16;19.05;;;12.93;;
83761;SDS011;73752;49.594;8.734;2024-03-23T03:50:16;25.00;;;13.40;;
83761;SDS011;73752;49.594;8.734;2024-03-23T03:53:16;27.80;;;13.30;;
83761;SDS011;73752;49.594;8.734;2024-03-23T03:56:17;29.60;;;12.93;;
83761;SDS011;73752;49.594;8.734;2024-03-23T03:59:17;24.95;;;12.93;;
83761;SDS011;73752;49.594;8.734;2024-03-23T04:02:17;25.85;;;13.73;;
83761;SDS011;73752;49.594;8.734;2024-03-23T04:05:18;22.13;;;13.27;;
83761;SDS011;73752;49.594;8.734;2024-03-23T04:08:20;25.45;;;13.55;;
83761;SDS011;73752;49.594;8.734;2024-03-23T04:11:20;22.52;;;13.95;;
83761;SDS011;73752;49.594;8.734;2024-03-23T04:14:20;24.67;;;14.30;;
83761;SDS011;73752;49.594;8.734;2024-03-23T04:17:21;25.40;;;14.45;;
83761;SDS011;73752;49.594;8.734;2024-03-23T04:20:22;23.10;;;13.55;;
83761;SDS011;73752;49.594;8.734;2024-03-23T04:23:22;26.10;;;13.35;;
83761;SDS011;73752;49.594;8.734;2024-03-23T04:26:22;22.00;;;13.52;;
83761;SDS011;73752;49.594;8.734;2024-03-23T04:29:22;23.88;;;13.50;;
83761;SDS011;73752;49.594;8.734;2024-03-23T04:32:23;23.85;;;13.65;;
83761;SDS011;73752;49.594;8.734;2024-03-23T04:35:23;26.30;;;13.23;;
83761;SDS011;73752;49.594;8.734;2024-03-23T04:38:25;21.50;;;13.88;;
83761;SDS011;73752;49.594;8.734;2024-03-23T04:41:25;24.15;;;13.27;;
83761;SDS011;73752;49.594;8.734;2024-03-23T04:44:26;27.67;;;13.82;;
83761;SDS011;73752;49.594;8.734;2024-03-23T04:47:26;25.23;;;14.35;;
83761;SDS011;73752;49.594;8.734;2024-03-23T04:50:26;27.63;;;13.00;;
83761;SDS011;73752;49.594;8.734;2024-03-23T04:53:27;26.67;;;14.00;;
83761;SDS011;73752;49.594;8.734;2024-03-23T04:56:30;26.80;;;13.38;;
83761;SDS011;73752;49.594;8.734;2024-03-23T04:59:31;18.45;;;12.55;;
83761;SDS011;73752;49.594;8.734;2024-03-23T05:02:32;29.88;;;13.77;;
83761;SDS011;73752;49.594;8.734;2024-03-23T05:05:34;21.38;;;12.88;;
83761;SDS011;73752;49.594;8.734;2024-03-23T05:08:34;22.45;;;12.27;;
83761;SDS011;73752;49.594;8.734;2024-03-23T05:11:35;21.02;;;10.77;;
83761;SDS011;73752;49.594;8.734;2024-03-23T05:14:35;20.85;;;10.57;;
83761;SDS011;73752;49.594;8.734;2024-03-23T05:17:35;20.67;;;11.15;;
83761;SDS011;73752;49.594;8.734;2024-03-23T05:20:37;18.23;;;10.77;;
83761;SDS011;73752;49.594;8.734;2024-03-23T05:23:38;19.27;;;11.40;;
83761;SDS011;73752;49.594;8.734;2024-03-23T05:26:38;17.40;;;9.23;;
83761;SDS011;73752;49.594;8.734;2024-03-23T05:29:38;12.18;;;7.80;;
83761;SDS011;73752;49.594;8.734;2024-03-23T05:32:39;10.27;;;6.22;;
83761;SDS011;73752;49.594;8.734;2024-03-23T05:35:40;10.70;;;6.65;;
83761;SDS011;73752;49.594;8.734;2024-03-23T05:38:40;9.73;;;6.22;;
83761;SDS011;73752;49.594;8.734;2024-03-23T05:41:40;8.70;;;5.55;;
83761;SDS011;73752;49.594;8.734;2024-03-23T05:44:41;7.35;;;4.65;;
83761;SDS011;73752;49.594;8.734;2024-03-23T05:47:43;6.32;;;4.22;;
83761;SDS011;73752;49.594;8.734;2024-03-23T05:50:44;10.00;;;4.40;;
83761;SDS011;73752;49.594;8.734;2024-03-23T05:53:44;8.93;;;5.00;;
83761;SDS011;73752;49.594;8.734;2024-03-23T05:56:45;6.68;;;4.50;;
83761;SDS011;73752;49.594;8.734;2024-03-23T05:59:45;6.47;;;4.25;;
83761;SDS011;73752;49.594;8.734;2024-03-23T06:02:45;6.32;;;4.80;;
83761;SDS011;73752;49.594;8.734;2024-03-23T06:05:45;8.63;;;4.78;;
83761;SDS011;73752;49.594;8.734;2024-03-23T06:08:46;7.47;;;4.30;;
83761;SDS011;73752;49.594;8.734;2024-03-23T06:11:46;8.13;;;4.55;;
83761;SDS011;73752;49.594;8.734;2024-03-23T06:14:46;5.25;;;4.05;;
83761;SDS011;73752;49.594;8.734;2024-03-23T06:17:48;5.18;;;3.60;;
83761;SDS011;73752;49.594;8.734;2024-03-23T06:20:48;4.97;;;3.55;;
83761;SDS011;73752;49.594;8.734;2024-03-23T06:23:51;5.00;;;3.58;;
83761;SDS011;73752;49.594;8.734;2024-03-23T06:26:52;5.82;;;3.72;;
83761;SDS011;73752;49.594;8.734;2024-03-23T06:29:52;6.13;;;3.45;;
83761;SDS011;73752;49.594;8.734;2024-03-23T06:32:52;3.63;;;3.00;;
83761;SDS011;73752;49.594;8.734;2024-03-23T06:35:53;4.00;;;2.85;;
83761;SDS011;73752;49.594;8.734;2024-03-23T06:38:54;3.83;;;2.60;;
83761;SDS011;73752;49.594;8.734;2024-03-23T06:41:54;3.35;;;2.38;;
83761;SDS011;73752;49.594;8.734;2024-03-23T06:44:55;3.03;;;2.30;;
83761;SDS011;73752;49.594;8.734;2024-03-23T06:47:55;2.65;;;2.30;;
83761;SDS011;73752;49.594;8.734;2024-03-23T06:50:57;2.75;;;2.13;;
83761;SDS011;73752;49.594;8.734;2024-03-23T06:53:58;2.60;;;2.13;;
83761;SDS011;73752;49.594;8.734;2024-03-23T06:56:58;3.13;;;2.35;;
83761;SDS011;73752;49.594;8.734;2024-03-23T06:59:58;2.60;;;2.40;;
83761;SDS011;73752;49.594;8.734;2024-03-23T07:03:01;2.90;;;2.38;;
83761;SDS011;73752;49.594;8.734;2024-03-23T07:06:03;2.70;;;2.22;;
83761;SDS011;73752;49.594;8.734;2024-03-23T07:09:04;2.90;;;2.45;;
83761;SDS011;73752;49.594;8.734;2024-03-23T07:12:04;2.65;;;1.90;;
83761;SDS011;73752;49.594;8.734;2024-03-23T07:15:05;3.45;;;2.30;;
83761;SDS011;73752;49.594;8.734;2024-03-23T07:18:05;2.78;;;1.92;;
83761;SDS011;73752;49.594;8.734;2024-03-23T07:21:06;2.83;;;1.95;;
83761;SDS011;73752;49.594;8.734;2024-03-23T07:24:06;2.55;;;2.10;;
83761;SDS011;73752;49.594;8.734;2024-03-23T07:27:07;1.52;;;1.42;;
83761;SDS011;73752;49.594;8.734;2024-03-23T07:30:10;1.20;;;1.10;;
83761;SDS011;73752;49.594;8.734;2024-03-23T07:33:10;1.85;;;1.20;;
83761;SDS011;73752;49.594;8.734;2024-03-23T07:36:10;1.27;;;1.00;;
83761;SDS011;73752;49.594;8.734;2024-03-23T07:39:11;2.50;;;1.00;;
83761;SDS011;73752;49.594;8.734;2024-03-23T07:42:11;1.23;;;1.10;;
83761;SDS011;73752;49.594;8.734;2024-03-23T07:45:11;2.17;;;1.30;;
83761;SDS011;73752;49.594;8.734;2024-03-23T07:48:12;1.98;;;1.20;;
83761;SDS011;73752;49.594;8.734;2024-03-23T07:51:19;5.70;;;1.73;;
83761;SDS011;73752;49.594;8.734;2024-03-23T07:54:21;3.97;;;1.80;;
83761;SDS011;73752;49.594;8.734;2024-03-23T07:57:21;6.53;;;1.80;;
83761;SDS011;73752;49.594;8.734;2024-03-23T08:00:22;2.15;;;1.67;;
83761;SDS011;73752;49.594;8.734;2024-03-23T08:03:22;3.78;;;2.03;;
83761;SDS011;73752;49.594;8.734;2024-03-23T08:06:22;4.22;;;2.13;;
83761;SDS011;73752;49.594;8.734;2024-03-23T08:09:23;4.20;;;2.15;;
83761;SDS011;73752;49.594;8.734;2024-03-23T08:12:23;6.18;;;2.40;;
83761;SDS011;73752;49.594;8.734;2024-03-23T08:15:24;3.72;;;2.40;;
83761;SDS011;73752;49.594;8.734;2024-03-23T08:18:24;6.90;;;2.75;;
83761;SDS011;73752;49.594;8.734;2024-03-23T08:21:24;8.45;;;2.58;;
83761;SDS011;73752;49.594;8.734;2024-03-23T08:24:26;5.93;;;2.97;;
83761;SDS011;73752;49.594;8.734;2024-03-23T08:27:26;5.95;;;3.03;;
83761;SDS011;73752;49.594;8.734;2024-03-23T08:30:27;8.63;;;3.13;;
83761;SDS011;73752;49.594;8.734;2024-03-23T08:33:28;6.43;;;3.17;;
83761;SDS011;73752;49.594;8.734;2024-03-23T08:36:28;8.75;;;3.10;;
83761;SDS011;73752;49.594;8.734;2024-03-23T08:39:30;9.88;;;4.03;;
83761;SDS011;73752;49.594;8.734;2024-03-23T08:42:31;8.65;;;3.53;;
83761;SDS011;73752;49.594;8.734;2024-03-23T08:45:31;7.30;;;3.47;;
83761;SDS011;73752;49.594;8.734;2024-03-23T08:48:31;6.18;;;3.10;;
83761;SDS011;73752;49.594;8.734;2024-03-23T08:51:31;7.68;;;3.17;;
83761;SDS011;73752;49.594;8.734;2024-03-23T08:54:32;6.38;;;2.50;;
83761;SDS011;73752;49.594;8.734;2024-03-23T08:57:32;12.77;;;3.10;;
83761;SDS011;73752;49.594;8.734;2024-03-23T09:00:32;7.53;;;3.72;;
83761;SDS011;73752;49.594;8.734;2024-03-23T09:03:33;8.13;;;3.55;;
83761;SDS011;73752;49.594;8.734;2024-03-23T09:06:35;8.90;;;3.38;;
83761;SDS011;73752;49.594;8.734;2024-03-23T09:09:37;8.35;;;3.42;;
83761;SDS011;73752;49.594;8.734;2024-03-23T09:12:38;9.63;;;3.15;;
83761;SDS011;73752;49.594;8.734;2024-03-23T09:15:45;10.70;;;3.17;;
83761;SDS011;73752;49.594;8.734;2024-03-23T09:18:51;12.48;;;3.65;;
83761;SDS011;73752;49.594;8.734;2024-03-23T09:21:51;8.50;;;3.10;;
83761;SDS011;73752;49.594;8.734;2024-03-23T09:24:52;10.07;;;3.20;;
83761;SDS011;73752;49.594;8.734;2024-03-23T09:27:52;13.18;;;3.33;;
83761;SDS011;73752;49.594;8.734;2024-03-23T09:30:52;9.35;;;3.03;;
83761;SDS011;73752;49.594;8.734;2024-03-23T09:33:52;9.63;;;3.33;;
83761;SDS011;73752;49.594;8.734;2024-03-23T09:36:53;10.10;;;3.42;;
83761;SDS011;73752;49.594;8.734;2024-03-23T09:39:53;8.88;;;3.63;;
83761;SDS011;73752;49.594;8.734;2024-03-23T09:42:53;10.98;;;3.30;;
83761;SDS011;73752;49.594;8.734;2024-03-23T09:45:55;11.57;;;3.17;;
83761;SDS011;73752;49.594;8.734;2024-03-23T09:48:55;11.77;;;3.45;;
83761;SDS011;73752;49.594;8.734;2024-03-23T09:51:56;10.10;;;3.22;;
83761;SDS011;73752;49.594;8.734;2024-03-23T09:54:56;12.35;;;3.40;;
83761;SDS011;73752;49.594;8.734;2024-03-23T09:57:57;7.95;;;3.75;;
83761;SDS011;73752;49.594;8.734;2024-03-23T10:00:58;14.88;;;4.20;;
83761;SDS011;73752;49.594;8.734;2024-03-23T10:03:58;11.93;;;3.50;;
83761;SDS011;73752;49.594;8.734;2024-03-23T10:07:09;9.75;;;3.75;;
83761;SDS011;73752;49.594;8.734;2024-03-23T10:10:11;8.63;;;3.20;;
83761;SDS011;73752;49.594;8.734;2024-03-23T10:13:15;11.25;;;3.30;;
83761;SDS011;73752;49.594;8.734;2024-03-23T10:16:24;11.65;;;3.42;;
83761;SDS011;73752;49.594;8.734;2024-03-23T10:19:31;10.68;;;3.80;;
83761;SDS011;73752;49.594;8.734;2024-03-23T10:22:31;9.55;;;3.17;;
83761;SDS011;73752;49.594;8.734;2024-03-23T10:25:38;12.45;;;4.05;;
83761;SDS011;73752;49.594;8.734;2024-03-23T10:29:12;14.55;;;4.47;;
83761;SDS011;73752;49.594;8.734;2024-03-23T10:32:10;12.07;;;3.55;;
83761;SDS011;73752;49.594;8.734;2024-03-23T10:35:15;9.30;;;3.50;;
83761;SDS011;73752;49.594;8.734;2024-03-23T10:38:18;13.75;;;3.63;;
83761;SDS011;73752;49.594;8.734;2024-03-23T10:41:19;12.43;;;3.08;;
83761;SDS011;73752;49.594;8.734;2024-03-23T10:44:19;11.90;;;3.33;;
83761;SDS011;73752;49.594;8.734;2024-03-23T10:47:21;13.57;;;4.10;;
83761;SDS011;73752;49.594;8.734;2024-03-23T10:50:21;12.80;;;2.78;;
83761;SDS011;73752;49.594;8.734;2024-03-23T10:53:25;15.15;;;3.85;;
83761;SDS011;73752;49.594;8.734;2024-03-23T10:56:26;11.77;;;2.95;;
83761;SDS011;73752;49.594;8.734;2024-03-23T10:59:33;8.27;;;2.10;;
83761;SDS011;73752;49.594;8.734;2024-03-23T11:02:40;9.48;;;2.50;;
83761;SDS011;73752;49.594;8.734;2024-03-23T11:05:46;11.35;;;2.40;;
83761;SDS011;73752;49.594;8.734;2024-03-23T11:08:47;8.13;;;2.03;;
83761;SDS011;73752;49.594;8.734;2024-03-23T11:11:47;5.85;;;1.92;;
83761;SDS011;73752;49.594;8.734;2024-03-23T11:14:47;7.50;;;2.33;;
83761;SDS011;73752;49.594;8.734;2024-03-23T11:18:02;8.40;;;2.45;;
83761;SDS011;73752;49.594;8.734;2024-03-23T11:21:09;13.55;;;3.05;;
83761;SDS011;73752;49.594;8.734;2024-03-23T11:24:15;14.13;;;2.92;;
83761;SDS011;73752;49.594;8.734;2024-03-23T11:27:16;6.63;;;1.92;;
83761;SDS011;73752;49.594;8.734;2024-03-23T11:30:27;11.50;;;2.92;;
83761;SDS011;73752;49.594;8.734;2024-03-23T11:33:28;14.95;;;2.65;;
83761;SDS011;73752;49.594;8.734;2024-03-23T11:36:29;10.50;;;2.80;;
83761;SDS011;73752;49.594;8.734;2024-03-23T11:39:29;8.48;;;2.40;;
83761;SDS011;73752;49.594;8.734;2024-03-23T11:42:29;7.43;;;2.20;;
83761;SDS011;73752;49.594;8.734;2024-03-23T11:45:40;8.90;;;2.45;;
83761;SDS011;73752;49.594;8.734;2024-03-23T11:48:49;11.45;;;2.60;;
83761;SDS011;73752;49.594;8.734;2024-03-23T11:51:51;11.40;;;2.10;;
83761;SDS011;73752;49.594;8.734;2024-03-23T11:55:03;10.07;;;2.17;;
83761;SDS011;73752;49.594;8.734;2024-03-23T11:58:04;8.05;;;2.25;;
83761;SDS011;73752;49.594;8.734;2024-03-23T12:01:04;6.60;;;2.25;;
83761;SDS011;73752;49.594;8.734;2024-03-23T12:04:10;4.13;;;1.92;;
83761;SDS011;73752;49.594;8.734;2024-03-23T12:07:20;3.63;;;2.03;;
83761;SDS011;73752;49.594;8.734;2024-03-23T12:10:21;4.13;;;2.05;;
83761;SDS011;73752;49.594;8.734;2024-03-23T12:13:21;5.10;;;2.08;;
83761;SDS011;73752;49.594;8.734;2024-03-23T12:16:24;4.22;;;1.85;;
83761;SDS011;73752;49.594;8.734;2024-03-23T12:19:27;44.08;;;15.73;;
83761;SDS011;73752;49.594;8.734;2024-03-23T12:22:27;7.15;;;2.45;;
83761;SDS011;73752;49.594;8.734;2024-03-23T12:25:29;6.57;;;2.03;;
83761;SDS011;73752;49.594;8.734;2024-03-23T12:28:29;4.90;;;1.88;;
83761;SDS011;73752;49.594;8.734;2024-03-23T12:31:30;5.15;;;2.08;;
83761;SDS011;73752;49.594;8.734;2024-03-23T12:34:30;3.45;;;1.90;;
83761;SDS011;73752;49.594;8.734;2024-03-23T12:37:30;3.65;;;1.80;;
83761;SDS011;73752;49.594;8.734;2024-03-23T12:40:31;5.53;;;2.03;;
83761;SDS011;73752;49.594;8.734;2024-03-23T12:43:31;5.05;;;1.90;;
83761;SDS011;73752;49.594;8.734;2024-03-23T12:46:31;7.50;;;2.25;;
83761;SDS011;73752;49.594;8.734;2024-03-23T12:49:32;8.55;;;2.80;;
83761;SDS011;73752;49.594;8.734;2024-03-23T12:52:32;4.75;;;2.17;;
83761;SDS011;73752;49.594;8.734;2024-03-23T12:55:36;6.45;;;2.60;;
83761;SDS011;73752;49.594;8.734;2024-03-23T12:58:37;7.15;;;2.90;;
83761;SDS011;73752;49.594;8.734;2024-03-23T13:01:37;8.68;;;2.47;;
83761;SDS011;73752;49.594;8.734;2024-03-23T13:04:37;12.52;;;2.63;;
83761;SDS011;73752;49.594;8.734;2024-03-23T13:07:38;11.25;;;3.88;;
83761;SDS011;73752;49.594;8.734;2024-03-23T13:10:38;12.07;;;3.92;;
83761;SDS011;73752;49.594;8.734;2024-03-23T13:13:38;12.15;;;3.75;;
83761;SDS011;73752;49.594;8.734;2024-03-23T13:16:39;12.02;;;4.68;;
83761;SDS011;73752;49.594;8.734;2024-03-23T13:19:39;9.23;;;3.20;;
83761;SDS011;73752;49.594;8.734;2024-03-23T13:22:40;20.55;;;3.95;;
83761;SDS011;73752;49.594;8.734;2024-03-23T13:25:40;7.72;;;3.10;;
83761;SDS011;73752;49.594;8.734;2024-03-23T13:28:40;25.35;;;3.05;;
83761;SDS011;73752;49.594;8.734;2024-03-23T13:31:41;3.47;;;1.65;;
83761;SDS011;73752;49.594;8.734;2024-03-23T13:34:41;4.40;;;1.33;;
83761;SDS011;73752;49.594;8.734;2024-03-23T13:37:42;4.25;;;1.13;;
83761;SDS011;73752;49.594;8.734;2024-03-23T13:40:50;1.75;;;0.80;;
83761;SDS011;73752;49.594;8.734;2024-03-23T13:43:51;4.43;;;1.27;;
83761;SDS011;73752;49.594;8.734;2024-03-23T13:46:51;3.00;;;1.67;;
83761;SDS011;73752;49.594;8.734;2024-03-23T13:49:52;13.68;;;2.88;;
83761;SDS011;73752;49.594;8.734;2024-03-23T13:52:52;2.97;;;1.55;;
83761;SDS011;73752;49.594;8.734;2024-03-23T13:55:52;3.92;;;1.50;;
83761;SDS011;73752;49.594;8.734;2024-03-23T13:58:53;4.00;;;1.58;;
83761;SDS011;73752;49.594;8.734;2024-03-23T14:01:55;6.10;;;1.85;;
83761;SDS011;73752;49.594;8.734;2024-03-23T14:04:55;5.72;;;1.85;;
83761;SDS011;73752;49.594;8.734;2024-03-23T14:07:56;5.03;;;1.48;;
83761;SDS011;73752;49.594;8.734;2024-03-23T14:10:56;5.45;;;2.28;;
83761;SDS011;73752;49.594;8.734;2024-03-23T14:13:57;8.07;;;2.50;;
83761;SDS011;73752;49.594;8.734;2024-03-23T14:16:57;3.78;;;1.50;;
83761;SDS011;73752;49.594;8.734;2024-03-23T14:19:58;12.70;;;2.25;;
83761;SDS011;73752;49.594;8.734;2024-03-23T14:23:01;6.38;;;2.13;;
83761;SDS011;73752;49.594;8.734;2024-03-23T14:26:01;5.95;;;1.75;;
83761;SDS011;73752;49.594;8.734;2024-03-23T14:29:01;5.15;;;1.40;;
83761;SDS011;73752;49.594;8.734;2024-03-23T14:32:02;8.52;;;1.77;;
83761;SDS011;73752;49.594;8.734;2024-03-23T14:35:03;3.42;;;1.40;;
83761;SDS011;73752;49.594;8.734;2024-03-23T14:38:04;6.85;;;1.40;;
83761;SDS011;73752;49.594;8.734;2024-03-23T14:41:04;6.18;;;1.75;;
83761;SDS011;73752;49.594;8.734;2024-03-23T14:44:05;4.15;;;1.90;;
83761;SDS011;73752;49.594;8.734;2024-03-23T14:47:05;3.95;;;1.60;;
83761;SDS011;73752;49.594;8.734;2024-03-23T14:50:05;6.43;;;1.73;;
83761;SDS011;73752;49.594;8.734;2024-03-23T14:53:08;3.42;;;1.58;;
83761;SDS011;73752;49.594;8.734;2024-03-23T14:56:08;2.63;;;1.63;;
83761;SDS011;73752;49.594;8.734;2024-03-23T14:59:11;4.60;;;1.50;;
83761;SDS011;73752;49.594;8.734;2024-03-23T15:02:12;5.15;;;1.25;;
83761;SDS011;73752;49.594;8.734;2024-03-23T15:05:13;5.43;;;1.23;;
83761;SDS011;73752;49.594;8.734;2024-03-23T15:08:14;6.43;;;1.65;;
83761;SDS011;73752;49.594;8.734;2024-03-23T15:11:15;4.53;;;1.75;;
83761;SDS011;73752;49.594;8.734;2024-03-23T15:14:18;5.10;;;1.15;;
83761;SDS011;73752;49.594;8.734;2024-03-23T15:17:18;2.53;;;1.10;;
83761;SDS011;73752;49.594;8.734;2024-03-23T15:20:18;3.38;;;1.17;;
83761;SDS011;73752;49.594;8.734;2024-03-23T15:23:19;5.03;;;2.88;;
83761;SDS011;73752;49.594;8.734;2024-03-23T15:26:19;3.30;;;1.42;;
83761;SDS011;73752;49.594;8.734;2024-03-23T15:29:20;6.00;;;1.98;;
83761;SDS011;73752;49.594;8.734;2024-03-23T15:32:22;6.25;;;1.73;;
83761;SDS011;73752;49.594;8.734;2024-03-23T15:35:22;3.38;;;1.00;;
83761;SDS011;73752;49.594;8.734;2024-03-23T15:38:23;1.40;;;0.52;;
83761;SDS011;73752;49.594;8.734;2024-03-23T15:41:23;4.30;;;0.75;;
83761;SDS011;73752;49.594;8.734;2024-03-23T15:44:24;2.20;;;0.70;;
83761;SDS011;73752;49.594;8.734;2024-03-23T15:47:24;4.97;;;1.00;;
83761;SDS011;73752;49.594;8.734;2024-03-23T15:50:25;2.35;;;0.70;;
83761;SDS011;73752;49.594;8.734;2024-03-23T15:53:25;3.42;;;0.80;;
83761;SDS011;73752;49.594;8.734;2024-03-23T15:56:28;7.35;;;1.05;;
83761;SDS011;73752;49.594;8.734;2024-03-23T15:59:29;2.00;;;0.77;;
83761;SDS011;73752;49.594;8.734;2024-03-23T16:02:29;1.75;;;0.60;;
83761;SDS011;73752;49.594;8.734;2024-03-23T16:05:29;3.90;;;1.67;;
83761;SDS011;73752;49.594;8.734;2024-03-23T16:08:30;7.93;;;1.98;;
83761;SDS011;73752;49.594;8.734;2024-03-23T16:11:31;5.75;;;2.00;;
83761;SDS011;73752;49.594;8.734;2024-03-23T16:14:31;3.08;;;1.17;;
83761;SDS011;73752;49.594;8.734;2024-03-23T16:17:32;5.18;;;1.20;;
83761;SDS011;73752;49.594;8.734;2024-03-23T16:20:35;3.38;;;1.30;;
83761;SDS011;73752;49.594;8.734;2024-03-23T16:23:36;3.70;;;1.45;;
83761;SDS011;73752;49.594;8.734;2024-03-23T16:26:44;3.42;;;1.90;;
83761;SDS011;73752;49.594;8.734;2024-03-23T16:29:45;11.00;;;1.70;;
83761;SDS011;73752;49.594;8.734;2024-03-23T16:32:48;3.95;;;1.58;;
83761;SDS011;73752;49.594;8.734;2024-03-23T16:35:58;2.72;;;1.20;;
83761;SDS011;73752;49.594;8.734;2024-03-23T16:39:01;3.25;;;1.30;;
83761;SDS011;73752;49.594;8.734;2024-03-23T16:42:01;10.23;;;1.50;;
83761;SDS011;73752;49.594;8.734;2024-03-23T16:45:02;5.85;;;1.90;;
83761;SDS011;73752;49.594;8.734;2024-03-23T16:48:03;7.85;;;1.67;;
83761;SDS011;73752;49.594;8.734;2024-03-23T16:51:04;6.10;;;2.20;;
83761;SDS011;73752;49.594;8.734;2024-03-23T16:54:05;5.05;;;2.42;;
83761;SDS011;73752;49.594;8.734;2024-03-23T16:57:06;5.40;;;2.22;;
83761;SDS011;73752;49.594;8.734;2024-03-23T17:00:06;5.88;;;3.10;;
83761;SDS011;73752;49.594;8.734;2024-03-23T17:03:10;8.07;;;3.67;;
83761;SDS011;73752;49.594;8.734;2024-03-23T17:06:11;7.97;;;2.00;;
83761;SDS011;73752;49.594;8.734;2024-03-23T17:09:14;4.65;;;2.50;;
83761;SDS011;73752;49.594;8.734;2024-03-23T17:12:16;2.97;;;2.03;;
83761;SDS011;73752;49.594;8.734;2024-03-23T17:15:17;4.55;;;2.20;;
83761;SDS011;73752;49.594;8.734;2024-03-23T17:18:21;5.88;;;2.35;;
83761;SDS011;73752;49.594;8.734;2024-03-23T17:21:21;3.92;;;1.98;;
83761;SDS011;73752;49.594;8.734;2024-03-23T17:24:21;4.70;;;1.55;;
83761;SDS011;73752;49.594;8.734;2024-03-23T17:27:22;4.30;;;1.40;;
83761;SDS011;73752;49.594;8.734;2024-03-23T17:30:22;2.83;;;1.42;;
83761;SDS011;73752;49.594;8.734;2024-03-23T17:33:23;3.45;;;1.60;;
83761;SDS011;73752;49.594;8.734;2024-03-23T17:36:24;4.60;;;1.95;;
83761;SDS011;73752;49.594;8.734;2024-03-23T17:39:30;3.65;;;1.55;;
83761;SDS011;73752;49.594;8.734;2024-03-23T17:42:31;5.15;;;1.63;;
83761;SDS011;73752;49.594;8.734;2024-03-23T17:45:31;3.83;;;1.55;;
83761;SDS011;73752;49.594;8.734;2024-03-23T17:48:32;6.55;;;1.50;;
83761;SDS011;73752;49.594;8.734;2024-03-23T17:51:32;4.93;;;1.40;;
83761;SDS011;73752;49.594;8.734;2024-03-23T17:54:33;3.55;;;1.58;;
83761;SDS011;73752;49.594;8.734;2024-03-23T17:57:33;4.80;;;1.90;;
83761;SDS011;73752;49.594;8.734;2024-03-23T18:00:33;3.75;;;1.70;;
83761;SDS011;73752;49.594;8.734;2024-03-23T18:03:34;4.35;;;1.42;;
83761;SDS011;73752;49.594;8.734;2024-03-23T18:06:34;2.53;;;1.17;;
83761;SDS011;73752;49.594;8.734;2024-03-23T18:09:34;3.75;;;1.70;;
83761;SDS011;73752;49.594;8.734;2024-03-23T18:12:35;5.97;;;2.88;;
83761;SDS011;73752;49.594;8.734;2024-03-23T18:15:35;4.72;;;1.70;;
83761;SDS011;73752;49.594;8.734;2024-03-23T18:18:36;6.50;;;1.95;;
83761;SDS011;73752;49.594;8.734;2024-03-23T18:21:36;4.50;;;2.15;;
83761;SDS011;73752;49.594;8.734;2024-03-23T18:24:37;6.38;;;1.95;;
83761;SDS011;73752;49.594;8.734;2024-03-23T18:27:37;7.18;;;1.38;;
83761;SDS011;73752;49.594;8.734;2024-03-23T18:30:37;2.80;;;1.55;;
83761;SDS011;73752;49.594;8.734;2024-03-23T18:33:39;3.75;;;1.60;;
83761;SDS011;73752;49.594;8.734;2024-03-23T18:36:40;2.30;;;1.80;;
83761;SDS011;73752;49.594;8.734;2024-03-23T18:39:40;3.67;;;1.30;;
83761;SDS011;73752;49.594;8.734;2024-03-23T18:42:41;7.47;;;1.50;;
83761;SDS011;73752;49.594;8.734;2024-03-23T18:45:48;3.53;;;1.58;;
83761;SDS011;73752;49.594;8.734;2024-03-23T18:48:49;4.90;;;1.67;;
83761;SDS011;73752;49.594;8.734;2024-03-23T18:51:49;2.78;;;1.38;;
83761;SDS011;73752;49.594;8.734;2024-03-23T18:54:49;4.45;;;1.30;;
83761;SDS011;73752;49.594;8.734;2024-03-23T18:57:50;3.40;;;1.50;;